Time;durP1;ratioP1;P1;durP2;ratioP2;P2;SDS_P1;SDS_P2;PMS_P1;PMS_P2;Temp;Humidity;BMP_temperature;BMP_pressure;BME280_temperature;BME280_humidity;BME280_pressure;Samples;Min_cycle;Max_cycle;Signal;HPM_P1;HPM_P2
2021/12/04 00:01:10;;;;;;;22.45;10.60;;;;;;;-0.39;69.30;99693.09;4447711;32;34621;-84
2021/12/04 00:03:59;;;;;;;18.37;8.90;;;;;;;-1.96;75.11;99684.56;4450377;32;35066;-84
2021/12/04 00:06:45;;;;;;;18.30;8.18;;;;;;;-1.23;73.68;99685.31;4450001;32;33471;-84
2021/12/04 00:09:33;;;;;;;20.55;7.57;;;;;;;-0.49;70.04;99688.31;4450605;32;34115;-84
2021/12/04 00:12:20;;;;;;;12.82;6.50;;;;;;;-0.44;69.56;99679.53;4448995;32;34738;-83
2021/12/04 00:15:07;;;;;;;14.10;6.25;;;;;;;-0.58;69.92;99671.72;4448774;32;37748;-84
2021/12/04 00:17:56;;;;;;;13.80;6.65;;;;;;;-0.42;69.44;99672.06;4450489;32;34451;-84
2021/12/04 00:20:43;;;;;;;15.18;6.97;;;;;;;-0.23;68.11;99668.09;4447811;32;33731;-84
2021/12/04 00:23:29;;;;;;;12.63;6.70;;;;;;;-0.27;67.90;99669.66;4448266;32;34556;-84
2021/12/04 00:26:16;;;;;;;14.43;7.37;;;;;;;-0.30;68.06;99662.06;4449944;32;33863;-84
2021/12/04 00:29:03;;;;;;;15.45;7.07;;;;;;;-0.37;68.38;99658.66;4449182;32;34318;-84
2021/12/04 00:31:56;;;;;;;16.98;7.00;;;;;;;-0.17;67.94;99648.31;4450852;32;34166;-84
2021/12/04 00:34:45;;;;;;;14.38;6.85;;;;;;;-0.18;67.97;99654.75;4437877;32;34288;-84
2021/12/04 00:49:07;;;;;;;15.13;6.80;;;;;;;-0.66;68.31;99642.47;4449315;32;35334;-83
2021/12/04 00:49:39;;;;;;;16.62;6.82;;;;;;;-0.91;70.09;99654.34;4447992;32;36004;-84
2021/12/04 00:52:25;;;;;;;15.82;7.03;;;;;;;-1.18;70.98;99647.78;4449507;32;35485;-82
2021/12/04 00:55:12;;;;;;;15.98;6.70;;;;;;;-1.04;71.20;99651.88;4438690;32;33819;-83
2021/12/04 00:57:59;;;;;;;17.60;7.03;;;;;;;-0.87;70.66;99651.19;4449109;32;34339;-83
2021/12/04 01:00:45;;;;;;;15.90;7.30;;;;;;;-1.95;73.64;99659.34;4449032;32;36041;-83
2021/12/04 01:03:35;;;;;;;17.92;8.25;;;;;;;-4.54;86.29;99662.53;4449025;32;34599;-83
2021/12/04 01:06:22;;;;;;;13.82;6.57;;;;;;;-3.06;82.95;99671.22;4449380;32;33856;-83
2021/12/04 01:09:11;;;;;;;13.62;6.07;;;;;;;-2.92;80.14;99669.22;4449649;32;35045;-82
2021/12/04 01:11:58;;;;;;;10.02;5.20;;;;;;;-2.77;80.24;99661.62;4448225;32;35558;-83
2021/12/04 01:14:44;;;;;;;13.85;5.97;;;;;;;-1.73;75.37;99658.84;4449278;32;34572;-83
2021/12/04 01:17:31;;;;;;;12.82;5.68;;;;;;;-1.86;74.84;99657.97;4448144;32;35108;-83
2021/12/04 01:20:17;;;;;;;10.50;5.35;;;;;;;-1.40;72.77;99658.28;4448111;32;34587;-82
2021/12/04 01:23:05;;;;;;;11.80;5.47;;;;;;;-1.55;72.37;99658.75;4449054;32;35058;-82
2021/12/04 01:25:51;;;;;;;12.35;5.93;;;;;;;-2.21;74.29;99657.84;4448482;32;34399;-82
2021/12/04 01:28:37;;;;;;;12.20;5.75;;;;;;;-1.39;72.01;99663.44;4449135;32;36911;-82
2021/12/04 01:31:24;;;;;;;14.35;6.72;;;;;;;-1.21;71.30;99656.34;4449138;32;35615;-82
2021/12/04 01:34:12;;;;;;;14.93;6.50;;;;;;;-1.94;74.14;99652.91;4451711;32;35048;-83
2021/12/04 01:36:58;;;;;;;18.23;6.53;;;;;;;-1.43;71.68;99662.25;4450329;32;34442;-82
2021/12/04 01:39:44;;;;;;;15.20;6.97;;;;;;;-1.16;70.88;99654.59;4449247;32;34366;-82
2021/12/04 01:42:34;;;;;;;16.95;8.13;;;;;;;-1.19;70.45;99646.97;4449594;32;34622;-82
2021/12/04 01:45:21;;;;;;;16.42;6.60;;;;;;;-1.31;71.29;99637.25;4450782;32;35939;-82
2021/12/04 01:48:07;;;;;;;12.93;6.43;;;;;;;-1.94;73.58;99649.41;4450884;32;36913;-82
2021/12/04 01:50:55;;;;;;;14.27;6.18;;;;;;;-2.26;74.89;99658.53;4451320;32;34258;-82
2021/12/04 01:53:41;;;;;;;13.98;6.70;;;;;;;-1.53;72.62;99651.28;4450918;32;34285;-82
2021/12/04 01:56:30;;;;;;;18.42;6.68;;;;;;;-1.24;70.07;99640.66;4450399;32;34654;-82
2021/12/04 01:59:17;;;;;;;13.25;6.97;;;;;;;-1.16;69.35;99640.31;4450300;32;33513;-82
2021/12/04 02:02:03;;;;;;;12.13;5.35;;;;;;;-1.32;69.77;99633.75;4450529;32;33821;-82
2021/12/04 02:04:50;;;;;;;14.23;5.80;;;;;;;-1.17;69.69;99627.91;4449911;32;34576;-81
2021/12/04 02:07:37;;;;;;;15.13;6.28;;;;;;;-1.24;70.02;99627.22;4450934;32;37074;-82
2021/12/04 02:10:23;;;;;;;18.00;7.97;;;;;;;-1.25;70.17;99631.78;4450973;32;34414;-82
2021/12/04 02:13:10;;;;;;;19.02;7.95;;;;;;;-1.36;70.56;99629.91;4451073;32;34185;-82
2021/12/04 02:16:01;;;;;;;19.15;8.35;;;;;;;-1.50;71.51;99634.69;4449052;32;34095;-82
2021/12/04 02:18:47;;;;;;;18.40;8.32;;;;;;;-1.28;71.27;99620.66;4451432;32;34649;-82
2021/12/04 02:21:34;;;;;;;27.55;11.38;;;;;;;-1.20;71.04;99614.94;4450809;32;34610;-82
2021/12/04 02:24:21;;;;;;;23.98;10.65;;;;;;;-1.04;70.53;99611.53;4449352;32;34268;-82
2021/12/04 02:27:09;;;;;;;25.05;10.30;;;;;;;-0.79;69.35;99607.78;4450552;32;35484;-82
2021/12/04 02:29:55;;;;;;;27.05;11.15;;;;;;;-0.76;69.14;99612.69;4449851;32;35127;-82
2021/12/04 02:32:42;;;;;;;23.67;10.32;;;;;;;-1.36;69.83;99606.53;4450517;32;34803;-82
2021/12/04 02:35:29;;;;;;;23.45;10.45;;;;;;;-1.33;70.03;99604.44;4451184;32;33270;-82
2021/12/04 02:38:18;;;;;;;18.02;8.00;;;;;;;-2.52;74.64;99605.19;4450424;32;34686;-82
2021/12/04 02:41:05;;;;;;;16.77;7.10;;;;;;;-2.86;76.94;99610.16;4439199;32;35970;-82
2021/12/04 02:43:51;;;;;;;16.35;7.97;;;;;;;-1.65;72.21;99607.44;4449953;32;34302;-82
2021/12/04 02:46:38;;;;;;;17.75;8.40;;;;;;;-1.54;71.25;99595.06;4450725;32;33811;-82
2021/12/04 02:49:24;;;;;;;14.52;6.85;;;;;;;-2.08;72.68;99595.09;4451064;32;34753;-82
2021/12/04 02:52:11;;;;;;;19.37;7.32;;;;;;;-2.18;73.04;99594.84;4449225;32;34857;-82
2021/12/04 02:54:58;;;;;;;16.98;7.97;;;;;;;-2.79;75.67;99600.19;4448759;32;35306;-82
2021/12/04 02:57:46;;;;;;;16.37;6.47;;;;;;;-2.72;76.78;99595.53;4450795;32;34141;-82
2021/12/04 03:00:33;;;;;;;16.45;6.85;;;;;;;-3.36;78.35;99601.41;4450083;32;34244;-82
2021/12/04 03:03:20;;;;;;;13.40;5.78;;;;;;;-2.79;76.09;99602.84;4450770;32;36021;-82
2021/12/04 03:06:06;;;;;;;15.15;5.95;;;;;;;-2.08;73.61;99600.47;4449831;32;34764;-82
2021/12/04 03:08:53;;;;;;;11.25;5.32;;;;;;;-1.94;72.05;99601.09;4450829;32;34263;-82
2021/12/04 03:11:39;;;;;;;12.85;4.40;;;;;;;-1.52;70.16;99592.97;4450122;32;34212;-82
2021/12/04 03:14:26;;;;;;;12.18;5.60;;;;;;;-1.40;68.87;99597.28;4450692;32;35081;-81
2021/12/04 03:17:16;;;;;;;11.10;5.50;;;;;;;-1.53;68.54;99592.16;4450318;32;35468;-82
2021/12/04 03:20:04;;;;;;;12.70;6.15;;;;;;;-1.66;69.18;99601.25;4451425;32;34759;-81
2021/12/04 03:22:58;;;;;;;11.12;5.70;;;;;;;-1.40;68.18;99596.47;4448410;32;34537;-82
2021/12/04 03:25:48;;;;;;;13.20;5.32;;;;;;;-1.50;68.34;99594.38;4449851;32;34981;-81
2021/12/04 03:28:35;;;;;;;12.93;5.72;;;;;;;-1.57;68.91;99590.97;4450997;32;35676;-81
2021/12/04 03:31:40;;;;;;;15.43;5.95;;;;;;;-1.82;68.86;99589.31;4449886;32;34388;-81
2021/12/04 03:40:49;;;;;;;15.48;5.37;;;;;;;-3.35;76.26;99557.50;4450293;32;35565;-81
2021/12/04 03:43:36;;;;;;;11.35;4.90;;;;;;;-2.19;71.72;99553.75;4449574;32;35013;-81
2021/12/04 03:46:24;;;;;;;10.32;5.15;;;;;;;-1.93;69.59;99533.72;4438673;32;35287;-81
2021/12/04 03:49:10;;;;;;;10.20;5.22;;;;;;;-1.89;68.93;99536.75;4449075;32;35014;-80
2021/12/04 03:51:56;;;;;;;13.80;6.78;;;;;;;-1.89;69.36;99529.53;4450234;32;35406;-81
2021/12/04 03:54:43;;;;;;;14.63;6.03;;;;;;;-1.83;69.08;99527.78;4450116;32;33849;-81
2021/12/04 03:57:29;;;;;;;13.85;6.87;;;;;;;-2.45;71.49;99533.47;4448626;32;34611;-81
2021/12/04 04:00:18;;;;;;;12.43;5.65;;;;;;;-2.00;69.37;99522.25;4448907;32;35922;-81
2021/12/04 04:03:06;;;;;;;13.82;5.68;;;;;;;-1.92;69.03;99519.25;4439060;32;34691;-81
2021/12/04 04:05:54;;;;;;;12.00;5.53;;;;;;;-1.82;68.92;99524.06;4449722;32;33857;-80
2021/12/04 04:08:41;;;;;;;14.43;6.25;;;;;;;-2.19;69.81;99528.75;4448799;32;35227;-81
2021/12/04 04:11:27;;;;;;;14.07;6.28;;;;;;;-1.86;69.14;99525.56;4448981;32;35977;-80
2021/12/04 04:14:14;;;;;;;14.93;5.72;;;;;;;-1.83;68.49;99525.09;4449299;32;35476;-80
2021/12/04 04:17:01;;;;;;;11.35;6.37;;;;;;;-1.83;68.59;99517.03;4448737;32;34197;-81
2021/12/04 04:19:47;;;;;;;12.73;7.00;;;;;;;-1.79;68.45;99517.38;4450608;32;35495;-81
2021/12/04 04:22:34;;;;;;;15.50;7.00;;;;;;;-2.04;69.05;99513.06;4449129;32;35017;-81
2021/12/04 04:25:21;;;;;;;13.77;6.40;;;;;;;-2.48;70.11;99517.84;4449790;32;35400;-80
2021/12/04 04:28:07;;;;;;;16.27;5.90;;;;;;;-3.80;76.84;99518.38;4447358;32;34141;-81
2021/12/04 04:30:53;;;;;;;12.00;5.72;;;;;;;-3.38;75.29;99520.44;4438674;32;34549;-81
2021/12/04 04:33:43;;;;;;;13.10;6.40;;;;;;;-2.49;72.68;99526.94;4449428;32;35987;-81
2021/12/04 04:58:01;;;;;;;13.88;6.95;;;;;;;-2.17;70.11;99540.09;4448823;32;35845;-81
2021/12/04 05:01:11;;;;;;;17.98;7.78;;;;;;;-2.16;69.11;99533.66;4449577;32;35613;-81
2021/12/04 05:13:04;;;;;;;11.32;5.50;;;;;;;-2.49;70.28;99543.03;4451037;32;34600;-81
2021/12/04 05:18:42;;;;;;;12.70;5.05;;;;;;;-2.54;70.51;99529.47;4451449;32;34627;-81
2021/12/04 05:21:28;;;;;;;7.95;3.75;;;;;;;-2.52;70.61;99527.41;4450216;32;34742;-81
2021/12/04 05:24:15;;;;;;;11.10;4.75;;;;;;;-2.59;71.61;99516.78;4451381;32;35775;-80
2021/12/04 05:27:02;;;;;;;10.88;5.00;;;;;;;-2.34;70.96;99516.59;4451164;32;34381;-81
2021/12/04 05:29:48;;;;;;;11.48;5.03;;;;;;;-2.46;71.60;99517.62;4450990;32;34102;-81
2021/12/04 05:32:35;;;;;;;9.93;4.82;;;;;;;-2.26;70.99;99515.44;4449865;32;35853;-81
2021/12/04 05:35:21;;;;;;;11.15;5.50;;;;;;;-2.42;70.81;99519.63;4450456;32;35477;-81
2021/12/04 05:38:08;;;;;;;9.32;4.55;;;;;;;-2.42;71.01;99519.63;4450531;32;34093;-81
2021/12/04 05:40:54;;;;;;;9.75;4.70;;;;;;;-2.73;71.60;99508.09;4449501;32;34667;-80
2021/12/04 05:43:41;;;;;;;9.63;4.55;;;;;;;-2.13;70.40;99514.44;4451064;32;35052;-81
2021/12/04 05:46:33;;;;;;;10.93;5.15;;;;;;;-2.03;69.56;99517.34;4449488;32;34675;-81
2021/12/04 05:49:26;;;;;;;12.77;5.30;;;;;;;-2.02;69.49;99508.28;4448880;32;34239;-80
2021/12/04 05:55:14;;;;;;;11.38;5.28;;;;;;;-2.63;70.27;99509.41;4449781;32;34603;-80
2021/12/04 05:58:05;;;;;;;13.15;5.62;;;;;;;-2.52;70.67;99509.44;4449313;32;34833;-81
2021/12/04 06:00:53;;;;;;;17.23;7.15;;;;;;;-2.79;71.30;99511.69;4447757;32;34128;-81
2021/12/04 06:03:39;;;;;;;15.35;6.65;;;;;;;-2.66;71.84;99505.31;4448726;32;34580;-81
2021/12/04 06:06:26;;;;;;;21.98;9.93;;;;;;;-2.30;70.13;99506.25;4450845;32;35692;-81
2021/12/04 06:09:13;;;;;;;22.40;10.40;;;;;;;-2.26;69.72;99492.13;4448616;32;35217;-80
2021/12/04 06:12:04;;;;;;;25.12;10.68;;;;;;;-2.04;69.09;99495.06;4449631;32;33822;-81
2021/12/04 06:14:51;;;;;;;23.25;10.75;;;;;;;-2.11;69.02;99493.53;4450684;32;35458;-81
2021/12/04 06:17:37;;;;;;;19.12;8.90;;;;;;;-1.91;68.01;99499.38;4451079;32;34997;-81
2021/12/04 06:23:30;;;;;;;20.52;8.60;;;;;;;-2.64;71.26;99494.34;4449409;32;35320;-81
2021/12/04 06:26:16;;;;;;;21.35;7.93;;;;;;;-2.12;69.16;99492.72;4450327;32;34606;-81
2021/12/04 06:29:04;;;;;;;22.50;8.93;;;;;;;-2.88;70.18;99496.94;4449682;32;34929;-80
2021/12/04 06:31:50;;;;;;;16.12;8.10;;;;;;;-5.40;83.62;99496.34;4449717;32;35474;-81
2021/12/04 06:34:37;;;;;;;17.80;8.40;;;;;;;-3.87;77.65;99496.19;4449123;32;33692;-80
2021/12/04 06:37:23;;;;;;;17.70;8.93;;;;;;;-2.89;72.53;99497.97;4449114;32;34178;-80
2021/12/04 06:40:14;;;;;;;17.27;7.53;;;;;;;-3.36;74.29;99502.25;4450302;32;35558;-81
2021/12/04 06:43:00;;;;;;;11.77;5.50;;;;;;;-2.62;71.34;99492.25;4448976;32;35483;-81
2021/12/04 06:45:56;;;;;;;23.30;9.43;;;;;;;-2.55;70.08;99487.62;4439121;32;35034;-80
2021/12/04 06:49:11;;;;;;;18.50;7.87;;;;;;;-2.60;70.01;99490.97;4449810;32;34632;-81
2021/12/04 06:51:54;;;;;;;17.02;7.65;;;;;;;-2.71;70.65;99478.34;4450597;32;35011;-81
2021/12/04 06:54:49;;;;;;;16.87;7.95;;;;;;;-2.79;71.62;99482.19;4451264;32;34534;-81
2021/12/04 06:57:38;;;;;;;18.83;8.80;;;;;;;-2.38;70.09;99487.78;4446482;32;34788;-81
2021/12/04 07:00:26;;;;;;;20.33;9.27;;;;;;;-2.18;69.39;99479.41;4448983;32;34668;-80
2021/12/04 07:03:12;;;;;;;21.30;9.68;;;;;;;-2.38;69.81;99471.69;4450083;32;34053;-81
2021/12/04 07:05:59;;;;;;;21.73;9.55;;;;;;;-2.37;70.33;99476.00;4451092;32;35568;-81
2021/12/04 07:08:48;;;;;;;22.45;10.35;;;;;;;-2.26;70.39;99467.16;4437491;32;34159;-81
2021/12/04 07:11:34;;;;;;;19.75;9.18;;;;;;;-2.30;70.35;99463.31;4450825;32;34761;-81
2021/12/04 07:14:20;;;;;;;18.08;9.10;;;;;;;-2.30;70.99;99456.06;4450301;32;34942;-80
2021/12/04 07:17:08;;;;;;;16.10;8.52;;;;;;;-2.51;71.87;99472.69;4449620;32;34837;-80
2021/12/04 07:19:54;;;;;;;19.15;9.32;;;;;;;-2.36;71.91;99462.34;4448616;32;35276;-80
2021/12/04 07:22:41;;;;;;;16.60;8.82;;;;;;;-2.59;72.87;99470.31;4448829;32;34622;-80
2021/12/04 07:25:27;;;;;;;20.25;9.65;;;;;;;-2.02;72.16;99459.94;4415735;32;34909;-80
2021/12/04 07:28:14;;;;;;;18.15;9.82;;;;;;;-1.83;72.11;99457.94;4404591;32;34657;-80
2021/12/04 07:31:00;;;;;;;17.65;9.70;;;;;;;-1.59;71.58;99445.31;4417621;32;34168;-80
2021/12/04 07:33:49;;;;;;;17.55;8.95;;;;;;;-1.88;71.64;99426.44;4419212;32;34708;-80
2021/12/04 07:36:36;;;;;;;20.33;9.98;;;;;;;-2.04;73.41;99436.00;4419055;32;36050;-81
2021/12/04 07:39:23;;;;;;;17.75;9.43;;;;;;;-1.28;71.03;99437.87;4418357;32;35346;-80
2021/12/04 07:42:09;;;;;;;20.42;10.10;;;;;;;-1.06;70.26;99421.91;4418096;32;34186;-80
2021/12/04 07:44:55;;;;;;;22.27;10.55;;;;;;;-0.79;69.64;99425.66;4417947;32;34562;-81
2021/12/04 07:47:42;;;;;;;19.42;9.73;;;;;;;-1.07;70.39;99421.09;4418583;32;34911;-80
2021/12/04 07:50:29;;;;;;;24.23;11.50;;;;;;;-1.50;71.70;99425.09;4407027;32;34248;-80
2021/12/04 07:53:15;;;;;;;21.95;10.85;;;;;;;-0.64;69.67;99419.72;4416746;32;35080;-80
2021/12/04 07:56:03;;;;;;;22.65;10.02;;;;;;;-1.13;70.27;99419.38;4418166;32;34480;-80
2021/12/04 07:58:50;;;;;;;22.20;9.65;;;;;;;-1.42;73.07;99424.72;4416601;32;35440;-80
2021/12/04 08:01:36;;;;;;;24.08;11.63;;;;;;;-0.42;70.08;99419.00;4411127;32;35599;-80
2021/12/04 08:04:23;;;;;;;22.85;13.13;;;;;;;-0.34;68.74;99423.97;4412157;32;33383;-80
2021/12/04 08:07:09;;;;;;;27.87;13.77;;;;;;;-2.28;76.79;99419.09;4414379;32;34607;-80
2021/12/04 08:09:56;;;;;;;31.50;14.07;;;;;;;-1.71;74.47;99423.81;4417994;32;34964;-80
2021/12/04 08:12:42;;;;;;;28.70;14.25;;;;;;;-0.71;72.14;99427.94;4414069;32;35449;-81
2021/12/04 08:15:30;;;;;;;27.00;14.60;;;;;;;0.01;70.02;99418.34;4416553;32;34490;-81
2021/12/04 08:18:17;;;;;;;30.15;16.55;;;;;;;0.39;69.15;99425.59;4416523;32;34681;-81
2021/12/04 08:21:03;;;;;;;26.52;14.52;;;;;;;-0.07;69.82;99421.44;4416327;32;34623;-81
2021/12/04 08:23:49;;;;;;;27.58;14.65;;;;;;;-0.62;70.57;99420.31;4427499;32;34602;-81
2021/12/04 08:26:38;;;;;;;30.00;14.90;;;;;;;0.11;70.16;99417.66;4446558;32;34257;-81
2021/12/04 08:29:24;;;;;;;27.37;15.07;;;;;;;0.50;69.25;99425.72;4434688;32;35493;-81
2021/12/04 08:32:11;;;;;;;20.48;10.73;;;;;;;0.28;70.13;99423.81;4445669;32;37189;-81
2021/12/04 08:34:57;;;;;;;19.87;9.13;;;;;;;0.81;68.82;99427.75;4446893;32;34636;-81
2021/12/04 08:37:44;;;;;;;21.80;8.80;;;;;;;0.87;67.66;99421.31;4446306;32;33668;-81
2021/12/04 08:40:31;;;;;;;16.87;8.65;;;;;;;0.12;70.06;99413.91;4446189;32;34323;-81
2021/12/04 08:43:17;;;;;;;16.65;8.45;;;;;;;0.39;69.60;99414.81;4443968;32;35077;-81
2021/12/04 08:46:04;;;;;;;14.80;8.57;;;;;;;1.12;67.74;99409.19;4445826;32;35470;-82
2021/12/04 08:48:54;;;;;;;19.35;8.90;;;;;;;-0.01;70.57;99405.09;4447361;32;34083;-82
2021/12/04 08:51:44;;;;;;;19.77;8.75;;;;;;;-0.14;72.69;99400.06;4445703;32;35455;-82
2021/12/04 08:54:31;;;;;;;16.87;8.80;;;;;;;0.69;69.92;99410.88;4445613;32;34621;-81
2021/12/04 08:57:17;;;;;;;20.95;9.45;;;;;;;1.32;67.46;99412.09;4445857;32;35205;-82
2021/12/04 09:00:10;;;;;;;21.37;9.60;;;;;;;1.43;67.63;99412.19;4445191;32;34075;-82
2021/12/04 09:02:57;;;;;;;19.15;9.48;;;;;;;1.23;68.09;99402.81;4446033;32;34393;-81
2021/12/04 09:05:44;;;;;;;20.45;9.90;;;;;;;1.48;67.63;99398.72;4434776;32;36555;-82
2021/12/04 09:08:30;;;;;;;21.48;10.10;;;;;;;1.92;66.69;99396.63;4445555;32;35669;-81
2021/12/04 09:11:28;;;;;;;19.45;10.15;;;;;;;1.79;67.31;99397.91;4446632;32;34512;-81
2021/12/04 09:14:16;;;;;;;21.85;11.70;;;;;;;2.29;66.03;99392.25;4444950;32;35274;-81
2021/12/04 09:17:06;;;;;;;25.83;11.15;;;;;;;2.13;67.48;99391.34;4446139;32;35014;-82
2021/12/04 09:19:52;;;;;;;24.65;12.60;;;;;;;2.66;66.37;99382.16;4446617;32;34763;-81
2021/12/04 09:22:40;;;;;;;22.65;12.75;;;;;;;2.83;66.02;99381.94;4445454;32;34218;-82
2021/12/04 09:25:28;;;;;;;24.02;12.27;;;;;;;2.60;66.28;99377.81;4434197;32;34575;-81
2021/12/04 09:28:19;;;;;;;22.80;12.00;;;;;;;2.36;65.96;99365.78;4445969;32;34653;-82
2021/12/04 09:35:11;;;;;;;25.95;13.18;;;;;;;2.81;65.09;99346.19;4426769;32;33010;-81
2021/12/04 10:32:46;;;;;;;25.05;12.60;;;;;;;3.66;60.60;99277.19;4447825;32;33784;-77
2021/12/04 10:35:33;;;;;;;27.00;12.90;;;;;;;2.69;61.85;99267.19;4450066;32;34285;-78
2021/12/04 10:38:25;;;;;;;26.45;12.25;;;;;;;3.38;60.61;99263.13;4447958;32;35885;-77
2021/12/04 10:41:15;;;;;;;25.02;12.23;;;;;;;3.83;58.55;99253.28;4447143;32;34823;-78
2021/12/04 10:44:23;;;;;;;20.30;11.02;;;;;;;3.83;58.43;99253.28;4446140;32;34593;-78
2021/12/04 10:47:12;;;;;;;20.45;10.15;;;;;;;4.02;56.80;99245.38;4445935;32;34678;-78
2021/12/04 10:53:13;;;;;;;25.95;12.60;;;;;;;4.57;56.04;99229.09;4447684;32;34605;-77
2021/12/04 11:05:12;;;;;;;20.42;9.80;;;;;;;3.77;54.34;99211.03;4436148;32;34542;-76
2021/12/04 11:26:40;;;;;;;19.40;8.30;;;;;;;3.77;52.90;99184.75;4447024;32;34609;-76
2021/12/04 11:38:42;;;;;;;16.08;7.78;;;;;;;3.20;52.88;99163.53;4446994;32;34558;-77
2021/12/04 11:44:50;;;;;;;18.15;8.25;;;;;;;3.50;52.89;99147.22;4448548;32;35170;-77
2021/12/04 11:47:39;;;;;;;17.30;8.18;;;;;;;3.78;52.09;99150.31;4448284;32;34247;-76
2021/12/04 11:50:34;;;;;;;16.50;9.27;;;;;;;3.82;51.89;99143.28;4444821;32;35113;-76
2021/12/04 11:53:20;;;;;;;16.83;8.55;;;;;;;4.03;51.32;99136.66;4446819;32;36054;-75
2021/12/04 11:56:13;;;;;;;18.42;8.25;;;;;;;3.60;51.99;99130.91;4443399;32;35863;-76
2021/12/04 11:58:59;;;;;;;17.52;8.27;;;;;;;3.77;51.51;99129.75;4433814;32;34135;-76
2021/12/04 12:01:55;;;;;;;14.65;7.30;;;;;;;3.93;51.50;99134.00;4445108;32;34648;-76
2021/12/04 12:04:49;;;;;;;12.63;6.00;;;;;;;3.87;50.30;99121.59;4446696;32;34603;-77
2021/12/04 12:07:35;;;;;;;12.57;6.45;;;;;;;3.96;49.27;99124.50;4446838;32;34612;-76
2021/12/04 12:10:26;;;;;;;13.38;7.35;;;;;;;3.74;50.32;99116.75;4446604;32;35286;-76
2021/12/04 12:13:23;;;;;;;13.57;7.05;;;;;;;3.58;50.95;99122.22;4446243;32;34362;-77
2021/12/04 12:16:14;;;;;;;16.08;7.70;;;;;;;3.95;49.07;99122.88;4446712;32;34842;-76
2021/12/04 12:19:07;;;;;;;15.82;7.80;;;;;;;3.55;51.21;99119.28;4447915;32;34586;-76
2021/12/04 12:22:12;;;;;;;16.23;7.35;;;;;;;3.80;50.64;99116.44;4447957;32;34029;-76
2021/12/04 12:26:01;;;;;;;16.30;7.20;;;;;;;3.89;50.39;99113.97;4447525;32;34256;-76
2021/12/04 12:37:48;;;;;;;16.73;8.23;;;;;;;4.01;51.28;99103.59;4448408;32;35446;-76
2021/12/04 12:40:35;;;;;;;19.33;9.35;;;;;;;4.43;50.59;99088.63;4447638;32;34841;-76
2021/12/04 12:43:21;;;;;;;18.37;8.98;;;;;;;4.34;50.68;99090.34;4447004;32;35491;-76
2021/12/04 12:46:08;;;;;;;23.42;11.80;;;;;;;4.44;50.86;99084.03;4445603;32;35812;-76
2021/12/04 12:48:55;;;;;;;19.55;10.25;;;;;;;4.02;52.23;99086.25;4447693;32;34418;-76
2021/12/04 12:51:44;;;;;;;18.05;10.30;;;;;;;3.80;53.51;99085.81;4446673;32;34975;-77
2021/12/04 12:54:34;;;;;;;19.08;9.82;;;;;;;3.79;54.43;99084.22;4446222;32;35568;-77
2021/12/04 12:57:29;;;;;;;20.12;9.88;;;;;;;3.89;53.08;99081.44;4448080;32;34278;-77
2021/12/04 13:12:39;;;;;;;22.55;11.65;;;;;;;4.21;52.95;99072.00;4443659;32;34584;-77
2021/12/04 13:15:36;;;;;;;20.95;11.20;;;;;;;4.29;52.36;99071.41;4448276;32;35073;-77
2021/12/04 13:18:22;;;;;;;20.90;10.95;;;;;;;4.53;52.24;99070.69;4446074;32;34549;-76
2021/12/04 13:21:10;;;;;;;23.30;11.75;;;;;;;4.37;52.45;99072.69;4445937;32;35204;-77
2021/12/04 13:23:57;;;;;;;22.65;11.15;;;;;;;4.05;53.93;99066.69;4446753;32;34520;-76
2021/12/04 13:26:46;;;;;;;19.52;11.07;;;;;;;4.10;53.81;99071.28;4447270;32;34962;-76
2021/12/04 13:29:32;;;;;;;20.48;11.63;;;;;;;4.17;53.32;99073.66;4449342;32;35392;-76
2021/12/04 13:32:34;;;;;;;23.92;12.18;;;;;;;4.01;54.28;99067.53;4448290;32;33822;-77
2021/12/04 13:35:23;;;;;;;21.20;10.85;;;;;;;3.93;54.86;99073.56;4447603;32;34234;-76
2021/12/04 13:38:10;;;;;;;23.30;12.02;;;;;;;4.46;53.38;99057.44;4449751;32;34908;-77
2021/12/04 13:40:56;;;;;;;23.27;11.80;;;;;;;4.28;53.85;99053.50;4448203;32;34805;-77
2021/12/04 13:43:50;;;;;;;24.75;12.32;;;;;;;4.29;53.79;99049.69;4446690;32;35120;-76
2021/12/04 13:46:44;;;;;;;24.52;12.70;;;;;;;4.34;53.43;99044.25;4448322;32;35211;-76
2021/12/04 13:49:37;;;;;;;25.83;13.38;;;;;;;4.37;53.80;99048.28;4447718;32;35900;-77
2021/12/04 13:52:25;;;;;;;25.95;13.38;;;;;;;4.40;53.37;99051.22;4448921;32;35290;-77
2021/12/04 13:55:13;;;;;;;24.58;13.38;;;;;;;4.28;53.61;99040.75;4446832;32;34931;-76
2021/12/04 13:58:02;;;;;;;21.80;11.77;;;;;;;4.44;53.49;99025.19;4447824;32;34495;-76
2021/12/04 14:00:50;;;;;;;27.10;11.27;;;;;;;4.44;52.80;99014.31;4448916;32;35616;-76
2021/12/04 14:03:38;;;;;;;20.30;10.13;;;;;;;4.49;52.78;99016.97;4448466;32;35396;-76
2021/12/04 14:06:24;;;;;;;20.90;9.55;;;;;;;3.62;55.38;98992.47;4446857;32;35084;-76
2021/12/04 14:09:11;;;;;;;17.27;8.35;;;;;;;4.12;54.23;98979.59;4448638;32;35619;-76
2021/12/04 14:11:58;;;;;;;16.12;7.93;;;;;;;4.23;53.51;98972.19;4444497;32;34946;-77
2021/12/04 14:14:44;;;;;;;13.20;7.03;;;;;;;3.68;54.64;98968.88;4448626;32;34474;-77
2021/12/04 14:17:31;;;;;;;14.48;6.37;;;;;;;3.98;53.74;98963.19;4448202;32;34235;-77
2021/12/04 14:20:23;;;;;;;12.63;6.05;;;;;;;3.93;52.85;98971.37;4448715;32;34556;-76
2021/12/04 14:23:10;;;;;;;11.57;5.30;;;;;;;3.95;51.89;98961.03;4445626;32;35899;-77
2021/12/04 14:26:02;;;;;;;12.13;5.20;;;;;;;4.10;50.70;98962.00;4448568;32;34711;-76
2021/12/04 14:28:49;;;;;;;13.62;5.87;;;;;;;3.96;51.04;98965.37;4447739;32;33760;-76
2021/12/04 14:31:35;;;;;;;11.45;5.93;;;;;;;3.95;50.95;98979.22;4446707;32;34616;-76
2021/12/04 14:34:24;;;;;;;13.30;6.15;;;;;;;3.94;51.50;98973.00;4447559;32;34930;-76
2021/12/04 14:37:13;;;;;;;15.25;6.53;;;;;;;3.77;52.35;98976.09;4446982;32;34695;-77
2021/12/04 14:39:59;;;;;;;12.77;6.43;;;;;;;3.69;52.76;98981.31;4446495;32;34049;-76
2021/12/04 14:42:47;;;;;;;14.38;6.15;;;;;;;3.86;52.53;98973.59;4448622;32;34618;-76
2021/12/04 14:45:35;;;;;;;13.50;6.68;;;;;;;3.93;51.85;98979.50;4448493;32;34774;-77
2021/12/04 14:48:33;;;;;;;16.52;7.45;;;;;;;3.49;53.30;98966.81;4437183;32;35991;-76
2021/12/04 14:51:21;;;;;;;13.25;6.87;;;;;;;3.62;52.86;98959.97;4448771;32;33847;-77
2021/12/04 14:54:08;;;;;;;15.75;6.32;;;;;;;3.83;52.61;98972.25;4449522;32;36084;-76
2021/12/04 14:56:54;;;;;;;14.93;7.37;;;;;;;3.80;52.63;98963.87;4448492;32;34525;-76
2021/12/04 14:59:41;;;;;;;12.02;6.80;;;;;;;3.62;53.51;98967.28;4447159;32;34872;-77
2021/12/04 15:02:27;;;;;;;15.75;7.07;;;;;;;3.48;53.81;98970.63;4447779;32;34387;-76
2021/12/04 15:05:27;;;;;;;13.07;6.95;;;;;;;3.66;53.69;98965.63;4447872;32;34253;-76
2021/12/04 15:08:24;;;;;;;15.65;7.82;;;;;;;3.30;55.17;98968.53;4449088;32;35680;-76
2021/12/04 15:11:21;;;;;;;14.18;7.40;;;;;;;3.29;55.32;98975.06;4446877;32;33344;-76
2021/12/04 15:14:12;;;;;;;13.38;6.72;;;;;;;3.34;55.30;98983.16;4447836;32;34404;-76
2021/12/04 15:17:04;;;;;;;15.13;7.40;;;;;;;3.26;55.58;98989.16;4447367;32;35561;-76
2021/12/04 15:19:53;;;;;;;14.65;7.43;;;;;;;3.06;56.16;98988.16;4447976;32;34910;-77
2021/12/04 15:22:44;;;;;;;17.50;7.55;;;;;;;2.81;56.86;98986.34;4447876;32;33393;-77
2021/12/04 15:25:34;;;;;;;16.85;7.87;;;;;;;3.17;56.18;98993.53;4432537;32;34808;-76
2021/12/04 15:28:23;;;;;;;14.23;7.62;;;;;;;2.96;56.73;99000.91;4432106;32;34200;-76
2021/12/04 15:31:10;;;;;;;14.75;7.45;;;;;;;2.45;58.51;99008.09;4432386;32;35919;-76
2021/12/04 15:33:58;;;;;;;15.60;8.40;;;;;;;2.35;59.24;99007.28;4433184;32;34366;-77
2021/12/04 15:36:49;;;;;;;15.02;7.40;;;;;;;1.82;61.16;99004.84;4421039;32;33822;-76
2021/12/04 15:39:51;;;;;;;13.43;7.20;;;;;;;2.56;58.68;98998.06;4433080;32;35603;-76
2021/12/04 15:46:21;;;;;;;15.88;7.93;;;;;;;3.00;57.05;99007.41;4432984;32;34299;-77
2021/12/04 15:55:27;;;;;;;16.17;8.20;;;;;;;2.97;57.05;99010.66;4428979;32;34770;-77
2021/12/04 15:58:16;;;;;;;15.25;8.85;;;;;;;2.84;57.41;99010.16;4431210;32;34769;-77
2021/12/04 16:01:09;;;;;;;17.37;8.80;;;;;;;2.89;57.63;99001.22;4420123;32;35222;-76
2021/12/04 16:03:56;;;;;;;22.87;9.40;;;;;;;2.84;57.89;98998.50;4428192;32;34392;-78
2021/12/04 16:06:43;;;;;;;20.77;10.65;;;;;;;2.77;57.88;98993.41;4429602;32;36055;-77
2021/12/04 16:09:32;;;;;;;24.35;12.98;;;;;;;2.97;57.53;98989.81;4430618;32;35289;-77
2021/12/04 16:12:22;;;;;;;32.00;14.75;;;;;;;2.60;57.86;98990.22;4428394;32;34334;-77
2021/12/04 16:15:10;;;;;;;29.55;13.93;;;;;;;2.52;58.67;98974.53;4416563;32;34573;-77